Spicer, Minnesota
Current Conditions -  °F | °C
As of 10:15 PM on Thursday 27 Nov 2014 (Local Time) from KBDH Reporting Station
Light Snow Light Snow  
Wind Chill: -24°   Ceiling: 400
Heat Index: -14°   Visibility: 1.5mi
Dew Point: -18°   Wind: 16mph
Humidity: 72%   Direction: 130°SE
Pressure: 30.21"   Gusts: NA
Location:  45.23°N, 94.94°W
Report Text: KBDH 280415Z AUTO 13014KT 1 1/2SM -SN OVC004 M14/M18 A3021 RMK AO2
Loading
Personal Weather Stations






























Interactive Weather Map New forecast layout! Learn more

10-Day Weather Forecast

Advertisements
Track Severe Weather on mobile